createdAt,value
2022-11-27T00:02:24.539Z,4.78
2022-11-27T00:04:51.319Z,5.15
2022-11-27T00:07:18.134Z,5.93
2022-11-27T00:09:44.899Z,5.15
2022-11-27T00:12:11.655Z,4.05
2022-11-27T00:14:38.339Z,4.43
2022-11-27T00:17:05.278Z,3.33
2022-11-27T00:19:32.100Z,5.82
2022-11-27T00:21:58.815Z,4.50
2022-11-27T00:24:25.495Z,4.07
2022-11-27T00:26:52.230Z,4.60
2022-11-27T00:29:18.926Z,5.00
2022-11-27T00:31:45.729Z,4.68
2022-11-27T00:34:12.553Z,5.53
2022-11-27T00:36:41.123Z,4.18
2022-11-27T00:39:10.995Z,4.97
2022-11-27T00:41:38.090Z,6.60
2022-11-27T00:44:05.569Z,4.78
2022-11-27T00:46:34.275Z,4.00
2022-11-27T00:49:03.296Z,4.57
2022-11-27T00:51:30.421Z,3.53
2022-11-27T00:53:57.624Z,3.47
2022-11-27T00:56:27.385Z,3.67
2022-11-27T00:58:54.411Z,3.08
2022-11-27T01:01:30.655Z,2.85
2022-11-27T01:04:01.198Z,3.65
2022-11-27T01:06:29.189Z,3.38
2022-11-27T01:08:56.971Z,2.97
2022-11-27T01:11:26.695Z,3.55
2022-11-27T01:13:55.243Z,4.53
2022-11-27T01:16:24.472Z,4.88
2022-11-27T01:18:53.780Z,3.95
2022-11-27T01:21:21.906Z,3.80
2022-11-27T01:23:50.043Z,2.90
2022-11-27T01:26:17.874Z,3.78
2022-11-27T01:28:45.017Z,3.20
2022-11-27T01:31:15.016Z,3.40
2022-11-27T01:33:42.130Z,2.95
2022-11-27T01:36:10.366Z,4.88
2022-11-27T01:38:37.438Z,2.85
2022-11-27T01:41:19.822Z,2.30
2022-11-27T01:43:59.321Z,2.88
2022-11-27T01:46:42.792Z,3.67
2022-11-27T01:49:09.516Z,2.80
2022-11-27T01:51:59.318Z,2.88
2022-11-27T01:54:29.295Z,2.88
2022-11-27T01:57:02.891Z,2.33
2022-11-27T01:59:30.322Z,2.60
2022-11-27T02:01:57.101Z,2.88
2022-11-27T02:04:23.830Z,2.45
2022-11-27T02:06:50.579Z,2.40
2022-11-27T02:09:17.375Z,2.17
2022-11-27T02:11:55.851Z,2.63
2022-11-27T02:15:01.174Z,2.15
2022-11-27T02:17:46.833Z,2.75
2022-11-27T02:20:35.141Z,2.50
2022-11-27T02:23:10.658Z,3.90
2022-11-27T02:26:12.819Z,2.50
2022-11-27T02:31:58.469Z,2.30
2022-11-27T02:34:33.743Z,3.00
2022-11-27T02:37:09.224Z,4.30
2022-11-27T02:39:47.094Z,3.67
2022-11-27T02:42:19.440Z,4.20
2022-11-27T02:45:01.294Z,2.25
2022-11-27T02:49:57.664Z,2.50
2022-11-27T02:52:27.402Z,2.70
2022-11-27T02:54:58.365Z,3.20
2022-11-27T02:57:26.979Z,3.20
2022-11-27T02:59:55.967Z,3.03
2022-11-27T03:02:32.618Z,3.88
2022-11-27T03:05:02.340Z,3.35
2022-11-27T03:07:39.926Z,3.55
2022-11-27T03:10:14.220Z,4.18
2022-11-27T03:12:40.994Z,3.40
2022-11-27T03:15:08.255Z,2.92
2022-11-27T03:17:51.732Z,3.53
2022-11-27T03:20:30.903Z,3.08
2022-11-27T03:22:57.793Z,2.90
2022-11-27T03:25:25.143Z,3.17
2022-11-27T03:28:00.640Z,2.58
2022-11-27T03:30:27.456Z,2.25
2022-11-27T03:32:54.403Z,2.50
2022-11-27T03:35:25.073Z,2.10
2022-11-27T03:37:52.774Z,3.33
2022-11-27T03:40:21.074Z,2.17
2022-11-27T03:43:11.759Z,3.63
2022-11-27T03:45:43.527Z,2.20
2022-11-27T03:51:37.651Z,3.08
2022-11-27T03:54:12.805Z,2.55
2022-11-27T03:56:48.818Z,2.40
2022-11-27T03:59:21.240Z,3.05
2022-11-27T04:01:48.105Z,2.88
2022-11-27T04:04:15.412Z,3.80
2022-11-27T04:06:42.183Z,1.95
2022-11-27T04:09:08.865Z,2.40
2022-11-27T04:11:35.558Z,3.17
2022-11-27T04:14:02.247Z,3.65
2022-11-27T04:16:29.133Z,2.45
2022-11-27T04:18:55.930Z,2.60
2022-11-27T04:21:25.113Z,2.50
2022-11-27T04:23:51.838Z,2.10
2022-11-27T04:26:18.534Z,2.42
2022-11-27T04:28:45.271Z,1.95
2022-11-27T04:31:12.071Z,2.35
2022-11-27T04:33:38.999Z,2.05
2022-11-27T04:36:06.308Z,2.95
2022-11-27T04:38:33.031Z,2.97
2022-11-27T04:40:59.748Z,2.03
2022-11-27T04:43:26.454Z,2.30
2022-11-27T04:45:53.156Z,2.35
2022-11-27T04:48:19.914Z,2.00
2022-11-27T04:50:46.815Z,2.00
2022-11-27T04:53:13.515Z,3.13
2022-11-27T04:55:40.220Z,2.40
2022-11-27T04:58:06.922Z,1.40
2022-11-27T05:00:33.794Z,1.70
2022-11-27T05:03:00.658Z,2.13
2022-11-27T05:05:27.445Z,1.65
2022-11-27T05:07:54.211Z,1.52
2022-11-27T05:10:20.932Z,1.60
2022-11-27T05:12:47.648Z,2.10
2022-11-27T05:15:14.359Z,1.67
2022-11-27T05:17:41.063Z,1.20
2022-11-27T05:20:08.426Z,1.48
2022-11-27T05:22:35.139Z,1.75
2022-11-27T05:25:02.106Z,1.50
2022-11-27T05:27:28.828Z,1.55
2022-11-27T05:29:55.517Z,1.75
2022-11-27T05:32:22.202Z,1.50
2022-11-27T05:34:49.632Z,2.10
2022-11-27T05:37:19.452Z,2.10
2022-11-27T05:39:46.881Z,1.50
2022-11-27T05:42:13.624Z,1.58
2022-11-27T05:44:40.638Z,2.22
2022-11-27T05:47:07.699Z,1.70
2022-11-27T05:49:34.588Z,1.20
2022-11-27T05:52:01.334Z,1.77
2022-11-27T05:54:28.175Z,1.33
2022-11-27T05:56:54.870Z,1.48
2022-11-27T05:59:21.633Z,1.80
2022-11-27T06:01:49.543Z,1.20
2022-11-27T06:04:16.485Z,1.67
2022-11-27T06:06:43.267Z,1.65
2022-11-27T06:09:13.195Z,2.10
2022-11-27T06:11:40.871Z,1.60
2022-11-27T06:14:08.945Z,1.55
2022-11-27T06:16:36.218Z,1.17
2022-11-27T06:19:03.672Z,1.65
2022-11-27T06:21:30.375Z,1.40
2022-11-27T06:23:57.291Z,1.40
2022-11-27T06:26:30.269Z,1.17
2022-11-27T06:28:58.296Z,1.60
2022-11-27T06:31:29.570Z,1.23
2022-11-27T06:33:57.333Z,1.35
2022-11-27T06:36:27.664Z,1.30
2022-11-27T06:38:54.381Z,1.48
2022-11-27T06:41:24.611Z,1.55
2022-11-27T06:43:51.321Z,1.50
2022-11-27T06:46:20.101Z,1.67
2022-11-27T06:48:48.567Z,1.40
2022-11-27T06:51:18.347Z,1.70
2022-11-27T06:53:45.443Z,2.10
2022-11-27T06:56:15.559Z,1.63
2022-11-27T06:58:43.245Z,2.05
2022-11-27T07:01:13.879Z,1.23
2022-11-27T07:03:41.318Z,1.77
2022-11-27T07:06:10.312Z,1.70
2022-11-27T07:08:37.076Z,2.38
2022-11-27T07:11:06.310Z,2.33
2022-11-27T07:13:33.702Z,1.95
2022-11-27T07:16:01.934Z,1.88
2022-11-27T07:18:29.888Z,3.13
2022-11-27T07:20:57.007Z,3.42
2022-11-27T07:23:23.745Z,5.85
2022-11-27T07:25:50.463Z,4.40
2022-11-27T07:28:19.131Z,6.03
2022-11-27T07:30:46.304Z,4.05
2022-11-27T07:33:13.063Z,2.88
2022-11-27T07:35:39.791Z,2.97
2022-11-27T07:38:06.497Z,3.58
2022-11-27T07:40:33.291Z,3.35
2022-11-27T07:43:00.068Z,2.17
2022-11-27T07:45:26.790Z,2.03
2022-11-27T07:47:53.603Z,2.20
2022-11-27T07:50:20.286Z,2.28
2022-11-27T07:52:47.433Z,1.92
2022-11-27T07:55:14.159Z,1.63
2022-11-27T07:57:42.349Z,2.30
2022-11-27T08:00:09.755Z,1.75
2022-11-27T08:02:36.500Z,1.95
2022-11-27T08:05:08.148Z,1.67
2022-11-27T08:07:37.885Z,5.13
2022-11-27T08:10:05.123Z,4.25
2022-11-27T08:12:31.852Z,5.03
2022-11-27T08:14:58.792Z,5.53
2022-11-27T08:17:25.572Z,4.40
2022-11-27T08:19:52.381Z,4.28
2022-11-27T08:22:20.662Z,3.00
2022-11-27T08:24:48.126Z,2.80
2022-11-27T08:27:16.357Z,2.10
2022-11-27T08:29:43.227Z,2.45
2022-11-27T08:32:10.554Z,2.65
2022-11-27T08:34:37.372Z,5.88
2022-11-27T08:37:05.552Z,14.02
2022-11-27T08:39:32.254Z,13.75
2022-11-27T08:41:59.333Z,9.57
2022-11-27T08:44:26.143Z,10.80
2022-11-27T08:46:52.891Z,7.70
2022-11-27T08:49:19.672Z,8.55
2022-11-27T08:51:46.371Z,10.85
2022-11-27T08:54:13.258Z,9.63
2022-11-27T08:56:39.976Z,11.75
2022-11-27T08:59:06.688Z,12.30
2022-11-27T09:01:33.627Z,9.73
2022-11-27T09:04:00.585Z,10.43
2022-11-27T09:06:29.979Z,10.70
2022-11-27T09:08:57.750Z,8.50
2022-11-27T09:11:25.611Z,8.13
2022-11-27T09:13:53.176Z,8.20
2022-11-27T09:16:21.625Z,7.95
2022-11-27T09:18:50.530Z,7.30
2022-11-27T09:21:19.542Z,7.32
2022-11-27T09:23:46.461Z,5.85
2022-11-27T09:26:16.027Z,5.57
2022-11-27T09:28:44.111Z,4.32
2022-11-27T09:31:15.136Z,4.65
2022-11-27T09:33:43.224Z,4.40
2022-11-27T09:36:21.707Z,3.90
2022-11-27T09:38:48.903Z,4.07
2022-11-27T09:41:39.365Z,4.00
2022-11-27T09:44:29.541Z,4.32
2022-11-27T09:46:59.604Z,4.07
2022-11-27T09:49:33.502Z,3.60
2022-11-27T09:52:23.673Z,4.00
2022-11-27T09:55:00.205Z,3.63
2022-11-27T09:57:32.777Z,6.13
2022-11-27T10:00:04.904Z,11.82
2022-11-27T10:02:33.650Z,12.68
2022-11-27T10:05:20.226Z,6.72
2022-11-27T10:08:14.144Z,7.65
2022-11-27T10:11:13.628Z,5.75
2022-11-27T10:13:45.943Z,6.97
2022-11-27T10:16:42.907Z,6.97
2022-11-27T10:19:48.430Z,5.53
2022-11-27T10:22:27.896Z,6.07
2022-11-27T10:25:25.467Z,4.85
2022-11-27T10:27:59.477Z,3.80
2022-11-27T10:30:29.486Z,3.30
2022-11-27T10:32:58.472Z,3.00
2022-11-27T10:35:28.907Z,2.75
2022-11-27T10:38:16.523Z,3.17
2022-11-27T10:40:54.242Z,4.03
2022-11-27T10:43:23.293Z,3.33
2022-11-27T10:45:57.614Z,4.40
2022-11-27T10:48:24.529Z,6.40
2022-11-27T10:50:52.586Z,8.50
2022-11-27T10:53:49.004Z,8.13
2022-11-27T10:56:22.420Z,9.95
2022-11-27T10:59:04.495Z,10.35
2022-11-27T11:01:49.336Z,8.48
2022-11-27T11:04:48.355Z,7.72
2022-11-27T11:07:28.487Z,8.23
2022-11-27T11:09:56.303Z,8.35
2022-11-27T11:12:23.998Z,8.77
2022-11-27T11:14:59.415Z,9.35
2022-11-27T11:17:38.249Z,9.40
2022-11-27T11:20:34.285Z,6.47
2022-11-27T11:23:01.023Z,11.27
2022-11-27T11:25:27.844Z,11.25
2022-11-27T11:27:55.212Z,9.15
2022-11-27T11:30:29.397Z,8.40
2022-11-27T11:33:04.103Z,8.25
2022-11-27T11:35:36.061Z,6.90
2022-11-27T11:38:16.954Z,5.45
2022-11-27T11:41:05.973Z,6.03
2022-11-27T11:43:35.670Z,5.35
2022-11-27T11:46:08.454Z,7.05
2022-11-27T11:48:37.078Z,7.10
2022-11-27T11:51:17.584Z,5.00
2022-11-27T11:53:50.193Z,5.90
2022-11-27T11:56:37.698Z,5.25
2022-11-27T11:59:28.728Z,4.47
2022-11-27T12:02:26.553Z,5.18
2022-11-27T12:05:30.781Z,5.43
2022-11-27T12:08:22.733Z,5.90
2022-11-27T12:13:52.406Z,3.30
2022-11-27T12:16:37.841Z,3.67
2022-11-27T12:19:21.920Z,4.68
2022-11-27T12:22:16.454Z,5.60
2022-11-27T12:25:20.448Z,4.90
2022-11-27T12:28:15.483Z,4.75
2022-11-27T12:31:03.441Z,3.78
2022-11-27T12:33:45.636Z,5.45
2022-11-27T12:36:17.787Z,6.85
2022-11-27T12:39:09.561Z,7.22
2022-11-27T12:41:47.187Z,6.43
2022-11-27T12:44:33.095Z,7.72
2022-11-27T12:47:07.019Z,16.13
2022-11-27T12:49:50.792Z,8.48
2022-11-27T12:52:40.060Z,6.05
2022-11-27T12:55:21.371Z,4.43
2022-11-27T12:57:56.852Z,4.18
2022-11-27T13:00:26.667Z,4.50
2022-11-27T13:03:11.729Z,5.60
2022-11-27T13:05:49.352Z,5.93
2022-11-27T13:08:26.263Z,9.20
2022-11-27T13:11:01.478Z,8.40
2022-11-27T13:13:45.686Z,8.05
2022-11-27T13:16:21.875Z,8.23
2022-11-27T13:19:00.868Z,7.72
2022-11-27T13:21:31.173Z,6.60
2022-11-27T13:24:00.977Z,7.32
2022-11-27T13:26:36.057Z,6.72
2022-11-27T13:29:16.996Z,5.95
2022-11-27T13:31:46.465Z,5.77
2022-11-27T13:34:23.763Z,6.10
2022-11-27T13:37:06.491Z,7.35
2022-11-27T13:39:39.325Z,7.07
2022-11-27T13:42:15.419Z,7.18
2022-11-27T13:44:44.861Z,6.22
2022-11-27T13:47:16.180Z,6.10
2022-11-27T13:49:43.519Z,5.70
2022-11-27T13:52:22.400Z,7.38
2022-11-27T13:54:57.865Z,6.10
2022-11-27T13:57:26.521Z,4.90
2022-11-27T14:00:09.907Z,5.57
2022-11-27T14:02:50.817Z,6.53
2022-11-27T14:05:33.532Z,7.18
2022-11-27T14:08:00.581Z,7.82
2022-11-27T14:10:30.484Z,6.45
2022-11-27T14:13:04.347Z,6.35
2022-11-27T14:15:33.956Z,7.80
2022-11-27T14:18:21.889Z,7.90
2022-11-27T14:21:03.024Z,7.45
2022-11-27T14:23:49.139Z,9.48
2022-11-27T14:26:15.948Z,6.75
2022-11-27T14:28:45.046Z,6.40
2022-11-27T14:31:33.148Z,7.13
2022-11-27T14:34:23.124Z,7.18
2022-11-27T14:36:52.318Z,6.25
2022-11-27T14:39:27.758Z,6.30
2022-11-27T14:42:02.950Z,5.15
2022-11-27T14:44:30.471Z,5.68
2022-11-27T14:47:00.712Z,5.20
2022-11-27T14:49:29.202Z,6.28
2022-11-27T14:52:01.413Z,5.22
2022-11-27T14:54:35.381Z,5.07
2022-11-27T14:57:02.551Z,7.85
2022-11-27T14:59:29.268Z,10.15
2022-11-27T15:02:15.312Z,13.35
2022-11-27T15:04:44.196Z,13.55
2022-11-27T15:07:22.123Z,13.27
2022-11-27T15:09:54.135Z,13.77
2022-11-27T15:12:29.628Z,12.95
2022-11-27T15:15:04.761Z,11.07
2022-11-27T15:17:35.172Z,10.73
2022-11-27T15:20:05.022Z,11.13
2022-11-27T15:22:33.583Z,10.93
2022-11-27T15:25:02.341Z,9.52
2022-11-27T15:27:32.749Z,9.18
2022-11-27T15:30:14.034Z,8.93
2022-11-27T15:32:51.330Z,10.98
2022-11-27T15:35:32.394Z,10.80
2022-11-27T15:38:04.575Z,11.00
2022-11-27T15:40:36.982Z,9.38
2022-11-27T15:43:14.610Z,9.10
2022-11-27T15:45:43.411Z,12.20
2022-11-27T15:48:15.972Z,10.82
2022-11-27T15:50:46.887Z,11.63
2022-11-27T15:53:18.032Z,10.32
2022-11-27T15:55:44.789Z,11.13
2022-11-27T15:58:11.660Z,11.82
2022-11-27T16:00:38.502Z,11.20
2022-11-27T16:03:05.358Z,9.10
2022-11-27T16:05:32.133Z,9.68
2022-11-27T16:07:58.898Z,9.27
2022-11-27T16:10:25.634Z,10.23
2022-11-27T16:12:55.248Z,10.30
2022-11-27T16:15:23.499Z,9.60
2022-11-27T16:17:51.658Z,9.82
2022-11-27T16:20:18.389Z,9.52
2022-11-27T16:22:45.154Z,9.63
2022-11-27T16:25:14.499Z,9.68
2022-11-27T16:27:41.236Z,9.23
2022-11-27T16:30:08.562Z,10.93
2022-11-27T16:32:39.472Z,14.38
2022-11-27T16:35:09.197Z,14.95
2022-11-27T16:37:35.917Z,11.52
2022-11-27T16:40:03.795Z,16.40
2022-11-27T16:42:30.782Z,15.90
2022-11-27T16:44:57.587Z,15.93
2022-11-27T16:47:30.596Z,14.55
2022-11-27T16:50:00.734Z,13.40
2022-11-27T16:52:27.893Z,15.52
2022-11-27T16:54:55.771Z,16.17
2022-11-27T16:57:23.571Z,14.25
2022-11-27T16:59:50.826Z,16.33
2022-11-27T17:02:19.143Z,15.85
2022-11-27T17:04:45.985Z,13.27
2022-11-27T17:07:12.760Z,13.35
2022-11-27T17:09:42.069Z,13.88
2022-11-27T17:12:08.773Z,13.07
2022-11-27T17:14:36.921Z,14.63
2022-11-27T17:17:05.652Z,12.77
2022-11-27T17:19:32.462Z,13.05
2022-11-27T17:21:59.913Z,14.20
2022-11-27T17:24:28.011Z,17.00
2022-11-27T17:26:56.712Z,14.15
2022-11-27T17:29:33.525Z,15.45
2022-11-27T17:32:02.415Z,13.57
2022-11-27T17:34:29.185Z,11.68
2022-11-27T17:36:57.527Z,14.75
2022-11-27T17:39:24.288Z,12.32
2022-11-27T17:41:51.237Z,12.02
2022-11-27T17:44:18.019Z,14.27
2022-11-27T17:46:49.762Z,18.13
2022-11-27T17:51:45.046Z,16.15
2022-11-27T17:54:14.016Z,15.75
2022-11-27T17:56:41.048Z,16.45
2022-11-27T17:59:09.713Z,16.38
2022-11-27T18:01:37.722Z,19.40
2022-11-27T18:04:05.924Z,16.48
2022-11-27T18:06:33.382Z,14.70
2022-11-27T18:09:00.456Z,12.93
2022-11-27T18:11:29.989Z,16.00
2022-11-27T18:14:00.052Z,13.55
2022-11-27T18:16:32.180Z,14.52
2022-11-27T18:19:01.863Z,15.60
2022-11-27T18:21:28.741Z,15.73
2022-11-27T18:27:07.297Z,18.17
2022-11-27T18:29:29.606Z,17.73
2022-11-27T18:31:56.449Z,17.33
2022-11-27T18:34:23.319Z,16.63
2022-11-27T18:36:50.118Z,16.13
2022-11-27T18:39:17.122Z,17.27
2022-11-27T18:41:43.858Z,15.07
2022-11-27T18:44:10.594Z,16.27
2022-11-27T18:46:38.303Z,17.85
2022-11-27T18:49:05.552Z,17.05
2022-11-27T18:51:32.531Z,17.52
2022-11-27T18:53:59.558Z,16.38
2022-11-27T18:56:30.522Z,15.30
2022-11-27T18:59:04.678Z,15.63
2022-11-27T19:01:40.925Z,15.48
2022-11-27T19:04:10.283Z,17.30
2022-11-27T19:06:37.767Z,18.10
2022-11-27T19:09:06.161Z,15.48
2022-11-27T19:11:33.913Z,17.08
2022-11-27T19:14:01.359Z,14.60
2022-11-27T19:16:31.777Z,19.70
2022-11-27T19:19:00.087Z,15.43
2022-11-27T19:21:29.275Z,16.60
2022-11-27T19:23:58.277Z,13.77
2022-11-27T19:26:27.796Z,15.55
2022-11-27T19:28:56.784Z,13.95
2022-11-27T19:31:25.189Z,18.50
2022-11-27T19:33:54.520Z,14.65
2022-11-27T19:36:22.278Z,14.65
2022-11-27T19:38:55.252Z,16.90
2022-11-27T19:41:23.582Z,16.40
2022-11-27T19:43:50.396Z,17.20
2022-11-27T19:46:24.902Z,15.27
2022-11-27T19:48:59.245Z,16.63
2022-11-27T19:51:28.331Z,20.70
2022-11-27T19:53:55.937Z,15.98
2022-11-27T19:56:26.987Z,14.57
2022-11-27T19:58:54.070Z,15.82
2022-11-27T20:01:20.961Z,16.48
2022-11-27T20:03:48.262Z,14.55
2022-11-27T20:06:17.964Z,13.32
2022-11-27T20:08:46.831Z,13.10
2022-11-27T20:11:17.687Z,12.75
2022-11-27T20:13:45.050Z,14.47
2022-11-27T20:16:17.586Z,14.07
2022-11-27T20:18:45.430Z,15.15
2022-11-27T20:21:14.908Z,15.75
2022-11-27T20:23:43.537Z,18.35
2022-11-27T20:26:14.803Z,18.17
2022-11-27T20:28:42.463Z,15.98
2022-11-27T20:31:24.869Z,15.25
2022-11-27T20:33:57.537Z,16.38
2022-11-27T20:36:25.456Z,15.50
2022-11-27T20:38:55.808Z,15.13
2022-11-27T20:41:23.952Z,14.20
2022-11-27T20:43:55.836Z,13.20
2022-11-27T20:46:23.308Z,13.90
2022-11-27T20:48:51.643Z,13.27
2022-11-27T20:51:22.443Z,12.52
2022-11-27T20:53:50.072Z,15.13
2022-11-27T20:56:19.917Z,12.32
2022-11-27T20:58:47.974Z,11.90
2022-11-27T21:01:27.549Z,11.60
2022-11-27T21:06:27.367Z,13.88
2022-11-27T21:08:54.586Z,13.93
2022-11-27T21:11:27.365Z,13.77
2022-11-27T21:13:58.422Z,15.52
2022-11-27T21:16:28.542Z,14.52
2022-11-27T21:18:57.262Z,11.93
2022-11-27T21:21:24.373Z,11.18
2022-11-27T21:23:51.094Z,14.35
2022-11-27T21:26:18.916Z,12.00
2022-11-27T21:28:46.873Z,12.27
2022-11-27T21:31:27.031Z,13.90
2022-11-27T21:33:56.366Z,10.98
2022-11-27T21:36:25.764Z,11.65
2022-11-27T21:38:53.164Z,10.45
2022-11-27T21:41:20.580Z,10.77
2022-11-27T21:43:49.066Z,10.88
2022-11-27T21:46:22.360Z,10.38
2022-11-27T21:48:51.419Z,9.85
2022-11-27T21:51:20.990Z,9.25
2022-11-27T21:53:49.943Z,10.20
2022-11-27T21:56:19.670Z,8.43
2022-11-27T21:58:48.467Z,9.77
2022-11-27T22:01:18.621Z,9.52
2022-11-27T22:03:47.024Z,8.50
2022-11-27T22:06:15.335Z,9.00
2022-11-27T22:08:44.221Z,7.93
2022-11-27T22:11:16.863Z,9.70
2022-11-27T22:13:44.155Z,8.85
2022-11-27T22:16:16.166Z,8.68
2022-11-27T22:18:43.519Z,8.85
2022-11-27T22:21:12.168Z,9.15
2022-11-27T22:23:40.308Z,8.70
2022-11-27T22:26:09.949Z,7.85
2022-11-27T22:28:38.226Z,8.75
2022-11-27T22:31:18.470Z,8.70
2022-11-27T22:33:46.048Z,8.02
2022-11-27T22:36:27.747Z,8.18
2022-11-27T22:38:55.482Z,8.52
2022-11-27T22:41:25.157Z,8.07
2022-11-27T22:43:52.372Z,8.77
2022-11-27T22:46:21.692Z,8.70
2022-11-27T22:48:54.753Z,9.65
2022-11-27T22:51:23.303Z,10.00
2022-11-27T22:53:50.319Z,9.88
2022-11-27T22:56:17.431Z,12.02
2022-11-27T22:58:44.370Z,9.73
2022-11-27T23:01:17.959Z,9.43
2022-11-27T23:03:45.232Z,8.65
2022-11-27T23:06:14.681Z,9.45
2022-11-27T23:08:43.783Z,8.88
2022-11-27T23:11:15.321Z,9.32
2022-11-27T23:13:46.437Z,8.25
2022-11-27T23:16:16.871Z,7.38
2022-11-27T23:18:43.709Z,9.02
2022-11-27T23:21:19.912Z,9.05
2022-11-27T23:23:46.806Z,8.43
2022-11-27T23:26:18.561Z,8.75
2022-11-27T23:28:46.830Z,8.40
2022-11-27T23:31:32.422Z,8.52
2022-11-27T23:34:03.468Z,9.55
2022-11-27T23:36:31.401Z,9.13
2022-11-27T23:39:02.859Z,8.73
2022-11-27T23:41:30.320Z,8.07
2022-11-27T23:43:57.969Z,7.30
2022-11-27T23:46:26.836Z,8.77
2022-11-27T23:48:55.561Z,8.00
2022-11-27T23:51:25.916Z,7.68
2022-11-27T23:53:53.365Z,8.35
2022-11-27T23:56:25.792Z,7.70
2022-11-27T23:58:54.855Z,7.32
